Time,TemperatureF,DewpointF,PressureIn,WindDirection,WindDirectionDegrees,WindSpeedMPH,WindSpeedGustMPH,Humidity,HourlyPrecipIn,Conditions,Clouds,dailyrainin,SoftwareType,DateUTC
2013-03-03 00:00:00,31.0,21.2,29.64,North,0,0.0,0.0,67,0.00,,,0.00,WUHU216HW,2013-03-03 05:00:00,
2013-03-03 00:01:00,31.0,21.2,29.64,North,0,0.0,0.0,67,0.00,,,0.00,WUHU216HW,2013-03-03 05:01:00,
2013-03-03 00:06:00,31.0,20.9,29.64,North,0,0.0,0.0,66,0.00,,,0.00,WUHU216HW,2013-03-03 05:06:00,
2013-03-03 00:11:00,30.8,20.7,29.64,North,0,0.0,0.0,66,0.00,,,0.00,WUHU216HW,2013-03-03 05:11:00,
2013-03-03 00:16:00,30.8,21.1,29.64,North,0,0.0,0.0,67,0.00,,,0.00,WUHU216HW,2013-03-03 05:16:00,
2013-03-03 00:21:00,30.8,21.1,29.64,North,0,0.0,0.0,67,0.00,,,0.00,WUHU216HW,2013-03-03 05:21:00,
2013-03-03 00:26:00,30.8,21.1,29.64,North,0,0.0,0.0,67,0.00,,,0.00,WUHU216HW,2013-03-03 05:26:00,
2013-03-03 00:31:00,30.8,21.4,29.64,North,0,0.0,0.0,68,0.00,,,0.00,WUHU216HW,2013-03-03 05:31:00,
2013-03-03 00:36:00,31.0,21.6,29.64,North,0,0.0,0.0,68,0.00,,,0.00,WUHU216HW,2013-03-03 05:36:00,
2013-03-03 00:41:00,31.0,21.6,29.64,North,0,0.0,0.0,68,0.00,,,0.00,WUHU216HW,2013-03-03 05:41:00,
2013-03-03 00:46:00,30.8,21.1,29.64,North,0,0.0,0.0,67,0.00,,,0.00,WUHU216HW,2013-03-03 05:46:00,
2013-03-03 00:51:00,30.8,21.4,29.64,North,0,0.0,0.0,68,0.00,,,0.00,WUHU216HW,2013-03-03 05:51:00,
2013-03-03 00:56:00,30.8,21.4,29.64,North,0,0.0,0.0,68,0.00,,,0.00,WUHU216HW,2013-03-03 05:56:00,
2013-03-03 01:01:00,30.6,21.2,29.64,North,0,0.0,0.0,68,0.00,,,0.00,WUHU216HW,2013-03-03 06:01:00,
2013-03-03 01:06:00,30.6,21.2,29.64,North,0,0.0,0.0,68,0.00,,,0.00,WUHU216HW,2013-03-03 06:06:00,
2013-03-03 01:11:00,30.6,21.2,29.64,North,0,0.0,0.0,68,0.00,,,0.00,WUHU216HW,2013-03-03 06:11:00,
2013-03-03 01:16:00,30.8,21.8,29.64,North,0,0.0,0.0,69,0.00,,,0.00,WUHU216HW,2013-03-03 06:16:00,
2013-03-03 01:22:00,30.8,21.8,29.64,North,0,0.0,0.0,69,0.00,,,0.00,WUHU216HW,2013-03-03 06:22:00,
2013-03-03 01:27:00,30.8,21.4,29.64,North,0,0.0,0.0,68,0.00,,,0.00,WUHU216HW,2013-03-03 06:27:00,
2013-03-03 01:32:00,30.8,21.4,29.64,North,0,0.0,0.0,68,0.00,,,0.00,WUHU216HW,2013-03-03 06:32:00,
2013-03-03 01:37:00,30.8,21.8,29.64,North,0,0.0,0.0,69,0.00,,,0.00,WUHU216HW,2013-03-03 06:37:00,
2013-03-03 01:42:00,30.8,21.8,29.64,North,0,0.0,0.0,69,0.00,,,0.00,WUHU216HW,2013-03-03 06:42:00,
2013-03-03 01:47:00,31.0,22.0,29.64,North,0,0.0,0.0,69,0.00,,,0.00,WUHU216HW,2013-03-03 06:47:00,
2013-03-03 01:52:00,31.0,21.6,29.64,North,0,0.0,0.0,68,0.00,,,0.00,WUHU216HW,2013-03-03 06:52:00,
2013-03-03 01:57:00,31.0,21.6,29.63,North,0,0.0,0.0,68,0.00,,,0.00,WUHU216HW,2013-03-03 06:57:00,
2013-03-03 02:02:00,30.8,21.4,29.63,North,0,0.0,0.0,68,0.00,,,0.00,WUHU216HW,2013-03-03 07:02:00,
2013-03-03 02:07:00,30.8,21.4,29.63,North,0,0.0,0.0,68,0.00,,,0.00,WUHU216HW,2013-03-03 07:07:00,
2013-03-03 02:12:00,30.6,21.2,29.63,North,0,0.0,0.0,68,0.00,,,0.00,WUHU216HW,2013-03-03 07:12:00,
2013-03-03 02:17:00,30.6,21.2,29.63,North,0,0.0,0.0,68,0.00,,,0.00,WUHU216HW,2013-03-03 07:17:00,
2013-03-03 02:22:00,30.6,21.2,29.63,North,0,0.0,0.0,68,0.00,,,0.00,WUHU216HW,2013-03-03 07:22:00,
2013-03-03 02:27:00,30.6,21.2,29.63,North,0,0.0,0.0,68,0.00,,,0.00,WUHU216HW,2013-03-03 07:27:00,
2013-03-03 02:32:00,30.4,21.1,29.63,North,0,0.0,0.0,68,0.00,,,0.00,WUHU216HW,2013-03-03 07:32:00,
2013-03-03 02:37:00,30.6,21.6,29.62,North,0,0.0,0.0,69,0.00,,,0.00,WUHU216HW,2013-03-03 07:37:00,
2013-03-03 02:42:00,30.4,21.4,29.62,North,0,0.0,0.0,69,0.00,,,0.00,WUHU216HW,2013-03-03 07:42:00,
2013-03-03 02:47:00,30.4,21.4,29.62,North,0,0.0,0.0,69,0.00,,,0.00,WUHU216HW,2013-03-03 07:47:00,
2013-03-03 02:52:00,30.4,21.4,29.62,North,0,0.0,0.0,69,0.00,,,0.00,WUHU216HW,2013-03-03 07:52:00,
2013-03-03 02:57:00,30.1,21.1,29.62,North,0,0.0,0.0,69,0.00,,,0.00,WUHU216HW,2013-03-03 07:57:00,
2013-03-03 03:02:00,29.9,20.9,29.62,North,0,0.0,0.0,69,0.00,,,0.00,WUHU216HW,2013-03-03 08:02:00,
2013-03-03 03:07:00,29.9,20.9,29.62,North,0,0.0,0.0,69,0.00,,,0.00,WUHU216HW,2013-03-03 08:07:00,
2013-03-03 03:12:00,29.9,20.9,29.62,North,0,0.0,0.0,69,0.00,,,0.00,WUHU216HW,2013-03-03 08:12:00,
2013-03-03 03:17:00,29.9,20.9,29.62,North,0,0.0,0.0,69,0.00,,,0.00,WUHU216HW,2013-03-03 08:17:00,
2013-03-03 03:22:00,29.9,20.9,29.62,North,0,0.0,0.0,69,0.00,,,0.00,WUHU216HW,2013-03-03 08:22:00,
2013-03-03 03:27:00,29.7,20.8,29.62,North,0,0.0,0.0,69,0.00,,,0.00,WUHU216HW,2013-03-03 08:27:00,
2013-03-03 03:32:00,29.5,20.6,29.62,North,0,0.0,0.0,69,0.00,,,0.00,WUHU216HW,2013-03-03 08:32:00,
2013-03-03 03:37:00,29.5,21.0,29.62,North,0,0.0,0.0,70,0.00,,,0.00,WUHU216HW,2013-03-03 08:37:00,
2013-03-03 03:42:00,29.5,21.0,29.62,North,0,0.0,0.0,70,0.00,,,0.00,WUHU216HW,2013-03-03 08:42:00,
2013-03-03 03:47:00,29.5,21.0,29.62,North,0,0.0,0.0,70,0.00,,,0.00,WUHU216HW,2013-03-03 08:47:00,
2013-03-03 03:52:00,29.3,20.8,29.62,North,0,0.0,0.0,70,0.00,,,0.00,WUHU216HW,2013-03-03 08:52:00,
2013-03-03 03:57:00,29.5,21.0,29.62,North,0,0.0,0.0,70,0.00,,,0.00,WUHU216HW,2013-03-03 08:57:00,
2013-03-03 04:02:00,29.3,20.8,29.62,North,0,0.0,0.0,70,0.00,,,0.00,WUHU216HW,2013-03-03 09:02:00,
2013-03-03 04:07:00,29.3,20.8,29.62,North,0,0.0,0.0,70,0.00,,,0.00,WUHU216HW,2013-03-03 09:07:00,
2013-03-03 04:13:00,29.3,20.8,29.62,North,0,0.0,0.0,70,0.00,,,0.00,WUHU216HW,2013-03-03 09:13:00,
2013-03-03 04:18:00,29.2,20.6,29.62,North,0,0.0,0.0,70,0.00,,,0.00,WUHU216HW,2013-03-03 09:18:00,
2013-03-03 04:23:00,29.2,20.6,29.62,North,0,0.0,0.0,70,0.00,,,0.00,WUHU216HW,2013-03-03 09:23:00,
2013-03-03 04:28:00,29.2,20.6,29.62,North,0,0.0,0.0,70,0.00,,,0.00,WUHU216HW,2013-03-03 09:28:00,
2013-03-03 04:33:00,29.2,21.0,29.62,North,0,0.0,0.0,71,0.00,,,0.00,WUHU216HW,2013-03-03 09:33:00,
2013-03-03 04:38:00,29.2,21.0,29.62,North,0,0.0,0.0,71,0.00,,,0.00,WUHU216HW,2013-03-03 09:38:00,
2013-03-03 04:43:00,29.2,21.0,29.62,North,0,0.0,0.0,71,0.00,,,0.00,WUHU216HW,2013-03-03 09:43:00,
2013-03-03 04:48:00,29.3,21.1,29.62,North,0,0.0,0.0,71,0.00,,,0.00,WUHU216HW,2013-03-03 09:48:00,
2013-03-03 04:53:00,29.3,21.1,29.63,North,0,0.0,0.0,71,0.00,,,0.00,WUHU216HW,2013-03-03 09:53:00,
2013-03-03 04:58:00,29.5,21.2,29.63,North,0,0.0,0.0,71,0.00,,,0.00,WUHU216HW,2013-03-03 09:58:00,
2013-03-03 05:03:00,30.1,21.4,29.63,North,0,0.0,0.0,70,0.00,,,0.00,WUHU216HW,2013-03-03 10:03:00,
2013-03-03 05:08:00,30.6,21.6,29.63,North,0,0.0,0.0,69,0.00,,,0.00,WUHU216HW,2013-03-03 10:08:00,
2013-03-03 05:13:00,30.6,21.6,29.63,North,0,0.0,0.0,69,0.00,,,0.00,WUHU216HW,2013-03-03 10:13:00,
2013-03-03 05:18:00,30.8,21.4,29.63,North,0,0.0,0.0,68,0.00,,,0.00,WUHU216HW,2013-03-03 10:18:00,
2013-03-03 05:23:00,30.8,21.4,29.63,North,0,0.0,0.0,68,0.00,,,0.00,WUHU216HW,2013-03-03 10:23:00,
2013-03-03 05:28:00,30.6,21.2,29.63,North,0,0.0,0.0,68,0.00,,,0.00,WUHU216HW,2013-03-03 10:28:00,
2013-03-03 05:33:00,30.8,21.4,29.63,North,0,0.0,0.0,68,0.00,,,0.00,WUHU216HW,2013-03-03 10:33:00,
2013-03-03 05:38:00,30.8,21.4,29.63,North,0,0.0,0.0,68,0.00,,,0.00,WUHU216HW,2013-03-03 10:38:00,
2013-03-03 05:44:00,30.8,21.4,29.63,North,0,0.0,0.0,68,0.00,,,0.00,WUHU216HW,2013-03-03 10:44:00,
2013-03-03 05:49:00,30.8,21.4,29.64,North,0,0.0,0.0,68,0.00,,,0.00,WUHU216HW,2013-03-03 10:49:00,
2013-03-03 05:54:00,30.8,21.4,29.64,North,0,0.0,0.0,68,0.00,,,0.00,WUHU216HW,2013-03-03 10:54:00,
2013-03-03 05:59:00,30.8,21.4,29.64,North,0,0.0,0.0,68,0.00,,,0.00,WUHU216HW,2013-03-03 10:59:00,
2013-03-03 06:04:00,31.0,21.6,29.64,North,0,0.0,0.0,68,0.00,,,0.00,WUHU216HW,2013-03-03 11:04:00,
2013-03-03 06:09:00,31.1,21.8,29.64,North,0,0.0,0.0,68,0.00,,,0.00,WUHU216HW,2013-03-03 11:09:00,
2013-03-03 06:14:00,31.3,22.0,29.64,North,0,0.0,0.0,68,0.00,,,0.00,WUHU216HW,2013-03-03 11:14:00,
2013-03-03 06:19:00,31.3,22.0,29.63,North,0,0.0,0.0,68,0.00,,,0.00,WUHU216HW,2013-03-03 11:19:00,
2013-03-03 06:24:00,31.3,22.0,29.64,North,0,0.0,0.0,68,0.00,,,0.00,WUHU216HW,2013-03-03 11:24:00,
2013-03-03 06:29:00,31.3,22.0,29.64,North,0,0.0,0.0,68,0.00,,,0.00,WUHU216HW,2013-03-03 11:29:00,
2013-03-03 06:34:00,31.5,22.1,29.64,North,0,0.0,0.0,68,0.00,,,0.00,WUHU216HW,2013-03-03 11:34:00,
2013-03-03 06:39:00,31.7,22.3,29.64,North,0,0.0,0.0,68,0.00,,,0.00,WUHU216HW,2013-03-03 11:39:00,
2013-03-03 06:44:00,31.7,22.0,29.64,North,0,0.0,0.0,67,0.00,,,0.00,WUHU216HW,2013-03-03 11:44:00,
2013-03-03 06:49:00,31.9,22.1,29.64,North,0,0.0,0.0,67,0.00,,,0.00,WUHU216HW,2013-03-03 11:49:00,
2013-03-03 06:54:00,31.9,22.1,29.64,North,0,0.0,0.0,67,0.00,,,0.00,WUHU216HW,2013-03-03 11:54:00,
2013-03-03 06:59:00,31.9,22.1,29.64,North,0,0.0,0.0,67,0.00,,,0.00,WUHU216HW,2013-03-03 11:59:00,
2013-03-03 07:04:00,32.0,22.3,29.64,North,0,0.0,0.0,67,0.00,,,0.00,WUHU216HW,2013-03-03 12:04:00,
2013-03-03 07:09:00,32.0,22.3,29.64,North,0,0.0,0.0,67,0.00,,,0.00,WUHU216HW,2013-03-03 12:09:00,
2013-03-03 07:14:00,32.4,22.3,29.64,North,0,0.0,0.0,66,0.00,,,0.00,WUHU216HW,2013-03-03 12:14:00,
2013-03-03 07:19:00,32.4,22.3,29.64,North,0,0.0,0.0,66,0.00,,,0.00,WUHU216HW,2013-03-03 12:19:00,
2013-03-03 07:25:00,32.6,22.4,29.64,North,0,0.0,0.0,66,0.00,,,0.00,WUHU216HW,2013-03-03 12:25:00,
2013-03-03 07:30:00,32.8,21.5,29.65,North,0,0.0,0.0,63,0.00,,,0.00,WUHU216HW,2013-03-03 12:30:00,
2013-03-03 07:35:00,32.9,22.1,29.65,North,0,0.0,0.0,64,0.00,,,0.00,WUHU216HW,2013-03-03 12:35:00,
2013-03-03 07:40:00,33.1,21.9,29.65,North,0,0.0,0.0,63,0.00,,,0.00,WUHU216HW,2013-03-03 12:40:00,
2013-03-03 07:45:00,33.3,21.7,29.65,North,0,0.0,0.0,62,0.00,,,0.00,WUHU216HW,2013-03-03 12:45:00,
2013-03-03 07:50:00,33.5,21.8,29.65,North,0,0.0,0.0,62,0.00,,,0.00,WUHU216HW,2013-03-03 12:50:00,
2013-03-03 07:55:00,33.5,21.8,29.65,North,0,0.0,0.0,62,0.00,,,0.00,WUHU216HW,2013-03-03 12:55:00,
2013-03-03 08:00:00,33.7,22.3,29.65,North,0,0.0,0.0,63,0.00,,,0.00,WUHU216HW,2013-03-03 13:00:00,
2013-03-03 08:05:00,33.8,22.1,29.65,North,0,0.0,0.0,62,0.00,,,0.00,WUHU216HW,2013-03-03 13:05:00,
2013-03-03 08:10:00,33.8,22.1,29.65,North,0,0.0,0.0,62,0.00,,,0.00,WUHU216HW,2013-03-03 13:10:00,
2013-03-03 08:15:00,34.0,22.0,29.65,North,0,0.0,0.0,61,0.00,,,0.00,WUHU216HW,2013-03-03 13:15:00,
2013-03-03 08:20:00,34.2,22.1,29.66,North,0,0.0,0.0,61,0.00,,,0.00,WUHU216HW,2013-03-03 13:20:00,
2013-03-03 08:25:00,34.6,22.1,29.66,North,0,0.0,0.0,60,0.00,,,0.00,WUHU216HW,2013-03-03 13:25:00,
2013-03-03 08:30:00,34.7,22.3,29.65,North,0,0.0,0.0,60,0.00,,,0.00,WUHU216HW,2013-03-03 13:30:00,
2013-03-03 08:35:00,34.9,22.5,29.65,North,0,0.0,0.0,60,0.00,,,0.00,WUHU216HW,2013-03-03 13:35:00,
2013-03-03 08:40:00,34.9,22.5,29.65,North,0,0.0,0.0,60,0.00,,,0.00,WUHU216HW,2013-03-03 13:40:00,
2013-03-03 08:45:00,35.5,23.0,29.65,North,0,0.0,0.0,60,0.00,,,0.00,WUHU216HW,2013-03-03 13:45:00,
2013-03-03 08:50:00,35.6,22.8,29.65,North,0,0.0,0.0,59,0.00,,,0.00,WUHU216HW,2013-03-03 13:50:00,
2013-03-03 08:55:00,35.6,22.8,29.65,North,0,0.0,0.0,59,0.00,,,0.00,WUHU216HW,2013-03-03 13:55:00,
2013-03-03 09:00:00,36.0,23.1,29.65,North,0,0.0,0.0,59,0.00,,,0.00,WUHU216HW,2013-03-03 14:00:00,
2013-03-03 09:05:00,36.0,23.1,29.65,North,0,0.0,0.0,59,0.00,,,0.00,WUHU216HW,2013-03-03 14:05:00,
2013-03-03 09:10:00,35.6,23.2,29.65,North,0,0.0,0.0,60,0.00,,,0.00,WUHU216HW,2013-03-03 14:10:00,
2013-03-03 09:15:00,35.3,22.9,29.65,North,0,0.0,0.0,60,0.00,,,0.00,WUHU216HW,2013-03-03 14:15:00,
2013-03-03 09:20:00,35.1,22.7,29.65,North,0,0.0,0.0,60,0.00,,,0.00,WUHU216HW,2013-03-03 14:20:00,
2013-03-03 09:25:00,35.1,22.7,29.65,North,0,0.0,0.0,60,0.00,,,0.00,WUHU216HW,2013-03-03 14:25:00,
2013-03-03 09:30:00,35.3,22.9,29.65,North,0,0.0,0.0,60,0.00,,,0.00,WUHU216HW,2013-03-03 14:30:00,
2013-03-03 09:35:00,35.3,22.9,29.65,North,0,0.0,0.0,60,0.00,,,0.00,WUHU216HW,2013-03-03 14:35:00,
2013-03-03 09:40:00,35.5,23.0,29.65,North,0,0.0,0.0,60,0.00,,,0.00,WUHU216HW,2013-03-03 14:40:00,
2013-03-03 09:45:00,35.6,23.2,29.65,North,0,0.0,0.0,60,0.00,,,0.00,WUHU216HW,2013-03-03 14:45:00,
2013-03-03 09:50:00,35.8,23.4,29.64,North,0,0.0,0.0,60,0.00,,,0.00,WUHU216HW,2013-03-03 14:50:00,
2013-03-03 09:55:00,35.8,23.4,29.65,North,0,0.0,0.0,60,0.00,,,0.00,WUHU216HW,2013-03-03 14:55:00,
2013-03-03 10:00:00,35.6,22.8,29.65,North,0,0.0,0.0,59,0.00,,,0.00,WUHU216HW,2013-03-03 15:00:00,
2013-03-03 10:05:00,35.6,23.2,29.64,North,0,0.0,0.0,60,0.00,,,0.00,WUHU216HW,2013-03-03 15:05:00,
2013-03-03 10:11:00,35.6,22.8,29.64,North,0,0.0,0.0,59,0.00,,,0.00,WUHU216HW,2013-03-03 15:11:00,
2013-03-03 10:16:00,35.6,22.8,29.64,North,0,0.0,0.0,59,0.00,,,0.00,WUHU216HW,2013-03-03 15:16:00,
2013-03-03 10:21:00,35.6,22.8,29.64,North,0,0.0,0.0,59,0.00,,,0.00,WUHU216HW,2013-03-03 15:21:00,
2013-03-03 10:26:00,35.8,23.0,29.64,North,0,0.0,0.0,59,0.00,,,0.00,WUHU216HW,2013-03-03 15:26:00,
2013-03-03 10:31:00,36.2,23.3,29.64,North,0,0.0,0.0,59,0.00,,,0.00,WUHU216HW,2013-03-03 15:31:00,
2013-03-03 10:36:00,36.4,23.4,29.64,North,0,0.0,0.0,59,0.00,,,0.00,WUHU216HW,2013-03-03 15:36:00,
2013-03-03 10:41:00,36.4,22.6,29.64,North,0,0.0,0.0,57,0.00,,,0.00,WUHU216HW,2013-03-03 15:41:00,
2013-03-03 10:46:00,36.7,22.5,29.64,North,0,0.0,0.0,56,0.00,,,0.00,WUHU216HW,2013-03-03 15:46:00,
2013-03-03 10:51:00,36.5,21.9,29.64,North,0,0.0,0.0,55,0.00,,,0.00,WUHU216HW,2013-03-03 15:51:00,
2013-03-03 10:56:00,36.4,22.1,29.64,North,0,0.0,0.0,56,0.00,,,0.00,WUHU216HW,2013-03-03 15:56:00,
2013-03-03 11:01:00,36.7,22.5,29.64,North,0,0.0,0.0,56,0.00,,,0.00,WUHU216HW,2013-03-03 16:01:00,
2013-03-03 11:06:00,36.7,22.5,29.64,North,0,0.0,0.0,56,0.00,,,0.00,WUHU216HW,2013-03-03 16:06:00,
2013-03-03 11:11:00,36.9,22.6,29.64,North,0,0.0,0.0,56,0.00,,,0.00,WUHU216HW,2013-03-03 16:11:00,
2013-03-03 11:16:00,37.1,23.2,29.64,North,0,0.0,0.0,57,0.00,,,0.00,WUHU216HW,2013-03-03 16:16:00,
2013-03-03 11:21:00,37.3,23.0,29.64,North,0,0.0,0.0,56,0.00,,,0.00,WUHU216HW,2013-03-03 16:21:00,
2013-03-03 11:26:00,37.6,22.9,29.64,North,0,0.0,0.0,55,0.00,,,0.00,WUHU216HW,2013-03-03 16:26:00,
2013-03-03 11:31:00,37.8,23.1,29.63,North,0,0.0,0.0,55,0.00,,,0.00,WUHU216HW,2013-03-03 16:31:00,
2013-03-03 11:36:00,38.0,23.1,29.64,North,0,0.0,0.0,55,0.00,,,0.00,WUHU216HW,2013-03-03 16:36:00,
2013-03-03 11:41:00,37.8,22.6,29.64,North,0,0.0,0.0,54,0.00,,,0.00,WUHU216HW,2013-03-03 16:41:00,
2013-03-03 11:46:00,37.8,22.6,29.63,North,0,0.0,0.0,54,0.00,,,0.00,WUHU216HW,2013-03-03 16:46:00,
2013-03-03 11:51:00,37.8,22.6,29.63,North,0,0.0,0.0,54,0.00,,,0.00,WUHU216HW,2013-03-03 16:51:00,
2013-03-03 11:56:00,38.3,23.0,29.64,North,0,0.0,0.0,54,0.00,,,0.00,WUHU216HW,2013-03-03 16:56:00,
2013-03-03 12:01:00,38.3,22.6,29.64,North,0,0.0,0.0,53,0.00,,,0.00,WUHU216HW,2013-03-03 17:01:00,
2013-03-03 12:06:00,38.3,22.6,29.63,North,0,0.0,0.0,53,0.00,,,0.00,WUHU216HW,2013-03-03 17:06:00,
2013-03-03 12:11:00,38.7,22.5,29.63,North,0,0.0,0.0,52,0.00,,,0.00,WUHU216HW,2013-03-03 17:11:00,
2013-03-03 12:16:00,38.5,22.3,29.63,North,0,0.0,0.0,52,0.00,,,0.00,WUHU216HW,2013-03-03 17:16:00,
2013-03-03 12:22:00,38.7,22.5,29.63,North,0,0.0,0.0,52,0.00,,,0.00,WUHU216HW,2013-03-03 17:22:00,
2013-03-03 12:27:00,39.2,22.6,29.62,North,0,0.0,0.0,51,0.00,,,0.00,WUHU216HW,2013-03-03 17:27:00,
2013-03-03 12:32:00,39.2,22.6,29.62,North,0,0.0,0.0,51,0.00,,,0.00,WUHU216HW,2013-03-03 17:32:00,
2013-03-03 12:37:00,39.2,22.6,29.62,North,0,0.0,0.0,51,0.00,,,0.00,WUHU216HW,2013-03-03 17:37:00,
2013-03-03 12:42:00,39.8,23.0,29.62,North,0,0.0,0.0,51,0.00,,,0.00,WUHU216HW,2013-03-03 17:42:00,
2013-03-03 12:47:00,39.8,22.6,29.62,North,0,0.0,0.0,50,0.00,,,0.00,WUHU216HW,2013-03-03 17:47:00,
2013-03-03 12:52:00,40.0,22.8,29.62,North,0,0.0,0.0,50,0.00,,,0.00,WUHU216HW,2013-03-03 17:52:00,
2013-03-03 12:57:00,39.8,22.6,29.61,North,0,0.0,0.0,50,0.00,,,0.00,WUHU216HW,2013-03-03 17:57:00,
2013-03-03 13:02:00,40.0,22.8,29.61,North,0,0.0,0.0,50,0.00,,,0.00,WUHU216HW,2013-03-03 18:02:00,
2013-03-03 13:07:00,39.8,22.2,29.61,North,0,0.0,0.0,49,0.00,,,0.00,WUHU216HW,2013-03-03 18:07:00,
2013-03-03 13:12:00,39.8,22.6,29.61,North,0,0.0,0.0,50,0.00,,,0.00,WUHU216HW,2013-03-03 18:12:00,
2013-03-03 13:17:00,39.8,22.6,29.61,North,0,0.0,0.0,50,0.00,,,0.00,WUHU216HW,2013-03-03 18:17:00,
2013-03-03 13:22:00,40.0,22.2,29.61,North,0,0.0,0.0,49,0.00,,,0.00,WUHU216HW,2013-03-03 18:22:00,
2013-03-03 13:27:00,40.1,23.0,29.61,North,0,0.0,0.0,50,0.00,,,0.00,WUHU216HW,2013-03-03 18:27:00,
2013-03-03 13:32:00,40.3,22.6,29.60,North,0,0.0,0.0,49,0.00,,,0.00,WUHU216HW,2013-03-03 18:32:00,
2013-03-03 13:37:00,40.3,22.6,29.60,North,0,0.0,0.0,49,0.00,,,0.00,WUHU216HW,2013-03-03 18:37:00,
2013-03-03 13:42:00,40.3,22.6,29.60,North,0,0.0,0.0,49,0.00,,,0.00,WUHU216HW,2013-03-03 18:42:00,
2013-03-03 13:47:00,40.0,22.2,29.59,North,0,0.0,0.0,49,0.00,,,0.00,WUHU216HW,2013-03-03 18:47:00,
2013-03-03 13:52:00,40.1,22.4,29.59,North,0,0.0,0.0,49,0.00,,,0.00,WUHU216HW,2013-03-03 18:52:00,
2013-03-03 13:57:00,40.0,22.2,29.59,North,0,0.0,0.0,49,0.00,,,0.00,WUHU216HW,2013-03-03 18:57:00,
2013-03-03 14:02:00,40.3,22.6,29.59,North,0,0.0,0.0,49,0.00,,,0.00,WUHU216HW,2013-03-03 19:02:00,
2013-03-03 14:07:00,40.1,22.4,29.59,North,0,0.0,0.0,49,0.00,,,0.00,WUHU216HW,2013-03-03 19:07:00,
2013-03-03 14:13:00,40.7,23.9,29.59,North,0,0.0,0.0,51,0.00,,,0.00,WUHU216HW,2013-03-03 19:13:00,
2013-03-03 14:18:00,41.2,23.4,29.59,North,0,0.0,0.0,49,0.00,,,0.00,WUHU216HW,2013-03-03 19:18:00,
2013-03-03 14:23:00,41.0,23.2,29.59,North,0,0.0,0.0,49,0.00,,,0.00,WUHU216HW,2013-03-03 19:23:00,
2013-03-03 14:28:00,40.9,23.0,29.59,North,0,0.0,0.0,49,0.00,,,0.00,WUHU216HW,2013-03-03 19:28:00,
2013-03-03 14:33:00,40.9,23.0,29.59,North,0,0.0,0.0,49,0.00,,,0.00,WUHU216HW,2013-03-03 19:33:00,
2013-03-03 14:38:00,41.2,23.4,29.59,North,0,0.0,0.0,49,0.00,,,0.00,WUHU216HW,2013-03-03 19:38:00,
2013-03-03 14:43:00,41.0,23.2,29.59,North,0,0.0,0.0,49,0.00,,,0.00,WUHU216HW,2013-03-03 19:43:00,
2013-03-03 14:48:00,41.0,23.2,29.59,North,0,0.0,0.0,49,0.00,,,0.00,WUHU216HW,2013-03-03 19:48:00,
2013-03-03 14:53:00,41.0,23.2,29.59,North,0,0.0,0.0,49,0.00,,,0.00,WUHU216HW,2013-03-03 19:53:00,
2013-03-03 14:58:00,41.0,23.2,29.59,North,0,0.0,0.0,49,0.00,,,0.00,WUHU216HW,2013-03-03 19:58:00,
2013-03-03 15:03:00,41.2,23.4,29.59,North,0,0.0,0.0,49,0.00,,,0.00,WUHU216HW,2013-03-03 20:03:00,
2013-03-03 15:08:00,40.9,23.0,29.59,North,0,0.0,0.0,49,0.00,,,0.00,WUHU216HW,2013-03-03 20:08:00,
2013-03-03 15:13:00,40.7,23.0,29.59,North,0,0.0,0.0,49,0.00,,,0.00,WUHU216HW,2013-03-03 20:13:00,
2013-03-03 15:19:00,40.5,22.8,29.59,North,0,0.0,0.0,49,0.00,,,0.00,WUHU216HW,2013-03-03 20:19:00,
2013-03-03 15:24:00,40.7,23.0,29.59,North,0,0.0,0.0,49,0.00,,,0.00,WUHU216HW,2013-03-03 20:24:00,
2013-03-03 15:29:00,40.7,23.0,29.59,North,0,0.0,0.0,49,0.00,,,0.00,WUHU216HW,2013-03-03 20:29:00,
2013-03-03 15:34:00,40.5,22.8,29.59,North,0,0.0,0.0,49,0.00,,,0.00,WUHU216HW,2013-03-03 20:34:00,
2013-03-03 15:39:00,40.9,23.0,29.59,North,0,0.0,0.0,49,0.00,,,0.00,WUHU216HW,2013-03-03 20:39:00,
2013-03-03 15:44:00,41.0,23.2,29.59,North,0,0.0,0.0,49,0.00,,,0.00,WUHU216HW,2013-03-03 20:44:00,
2013-03-03 15:49:00,40.9,23.0,29.59,North,0,0.0,0.0,49,0.00,,,0.00,WUHU216HW,2013-03-03 20:49:00,
2013-03-03 15:54:00,41.4,23.6,29.59,North,0,0.0,0.0,49,0.00,,,0.00,WUHU216HW,2013-03-03 20:54:00,
2013-03-03 15:59:00,41.2,23.4,29.59,North,0,0.0,0.0,49,0.00,,,0.00,WUHU216HW,2013-03-03 20:59:00,
2013-03-03 16:04:00,41.2,23.4,29.59,North,0,0.0,0.0,49,0.00,,,0.00,WUHU216HW,2013-03-03 21:04:00,
2013-03-03 16:09:00,41.4,23.6,29.59,North,0,0.0,0.0,49,0.00,,,0.00,WUHU216HW,2013-03-03 21:09:00,
2013-03-03 16:14:00,41.6,23.8,29.59,North,0,0.0,0.0,49,0.00,,,0.00,WUHU216HW,2013-03-03 21:14:00,
2013-03-03 16:19:00,41.0,22.7,29.59,North,0,0.0,0.0,48,0.00,,,0.00,WUHU216HW,2013-03-03 21:19:00,
2013-03-03 16:24:00,40.7,23.0,29.59,North,0,0.0,0.0,49,0.00,,,0.00,WUHU216HW,2013-03-03 21:24:00,
2013-03-03 16:29:00,40.3,22.6,29.59,North,0,0.0,0.0,49,0.00,,,0.00,WUHU216HW,2013-03-03 21:29:00,
2013-03-03 16:35:00,40.0,22.2,29.59,North,0,0.0,0.0,49,0.00,,,0.00,WUHU216HW,2013-03-03 21:35:00,
2013-03-03 16:40:00,40.0,22.2,29.59,North,0,0.0,0.0,49,0.00,,,0.00,WUHU216HW,2013-03-03 21:40:00,
2013-03-03 16:45:00,39.8,22.6,29.60,North,0,0.0,0.0,50,0.00,,,0.00,WUHU216HW,2013-03-03 21:45:00,
2013-03-03 16:50:00,39.8,22.6,29.60,North,0,0.0,0.0,50,0.00,,,0.00,WUHU216HW,2013-03-03 21:50:00,
2013-03-03 16:55:00,39.6,22.5,29.60,North,0,0.0,0.0,50,0.00,,,0.00,WUHU216HW,2013-03-03 21:55:00,
2013-03-03 17:00:00,39.2,22.1,29.60,North,0,0.0,0.0,50,0.00,,,0.00,WUHU216HW,2013-03-03 22:00:00,
2013-03-03 17:05:00,39.2,22.1,29.61,North,0,0.0,0.0,50,0.00,,,0.00,WUHU216HW,2013-03-03 22:05:00,
2013-03-03 17:10:00,39.2,22.6,29.61,North,0,0.0,0.0,51,0.00,,,0.00,WUHU216HW,2013-03-03 22:10:00,
2013-03-03 17:15:00,39.2,22.6,29.61,North,0,0.0,0.0,51,0.00,,,0.00,WUHU216HW,2013-03-03 22:15:00,
2013-03-03 17:20:00,39.1,22.4,29.61,North,0,0.0,0.0,51,0.00,,,0.00,WUHU216HW,2013-03-03 22:20:00,
2013-03-03 17:25:00,39.1,22.4,29.61,North,0,0.0,0.0,51,0.00,,,0.00,WUHU216HW,2013-03-03 22:25:00,
2013-03-03 17:30:00,38.9,21.8,29.62,North,0,0.0,0.0,50,0.00,,,0.00,WUHU216HW,2013-03-03 22:30:00,
2013-03-03 17:35:00,38.9,21.8,29.62,North,0,0.0,0.0,50,0.00,,,0.00,WUHU216HW,2013-03-03 22:35:00,
2013-03-03 17:41:00,38.7,22.1,29.62,North,0,0.0,0.0,51,0.00,,,0.00,WUHU216HW,2013-03-03 22:41:00,
2013-03-03 17:46:00,38.5,22.0,29.62,North,0,0.0,0.0,51,0.00,,,0.00,WUHU216HW,2013-03-03 22:46:00,
2013-03-03 17:51:00,38.5,22.3,29.62,North,0,0.0,0.0,52,0.00,,,0.00,WUHU216HW,2013-03-03 22:51:00,
2013-03-03 17:56:00,38.3,22.2,29.62,North,0,0.0,0.0,52,0.00,,,0.00,WUHU216HW,2013-03-03 22:56:00,
2013-03-03 18:01:00,38.3,22.2,29.63,North,0,0.0,0.0,52,0.00,,,0.00,WUHU216HW,2013-03-03 23:01:00,
2013-03-03 18:06:00,38.3,22.2,29.63,North,0,0.0,0.0,52,0.00,,,0.00,WUHU216HW,2013-03-03 23:06:00,
2013-03-03 18:11:00,38.2,22.1,29.63,North,0,0.0,0.0,52,0.00,,,0.00,WUHU216HW,2013-03-03 23:11:00,
2013-03-03 18:16:00,38.2,22.1,29.63,North,0,0.0,0.0,52,0.00,,,0.00,WUHU216HW,2013-03-03 23:16:00,
2013-03-03 18:21:00,38.0,21.9,29.64,North,0,0.0,0.0,52,0.00,,,0.00,WUHU216HW,2013-03-03 23:21:00,
2013-03-03 18:26:00,38.0,21.9,29.64,North,0,0.0,0.0,52,0.00,,,0.00,WUHU216HW,2013-03-03 23:26:00,
2013-03-03 18:31:00,37.8,21.7,29.64,North,0,0.0,0.0,52,0.00,,,0.00,WUHU216HW,2013-03-03 23:31:00,
2013-03-03 18:36:00,37.8,22.1,29.64,North,0,0.0,0.0,53,0.00,,,0.00,WUHU216HW,2013-03-03 23:36:00,
2013-03-03 18:41:00,37.8,22.1,29.64,North,0,0.0,0.0,53,0.00,,,0.00,WUHU216HW,2013-03-03 23:41:00,
2013-03-03 18:46:00,37.8,22.1,29.64,North,0,0.0,0.0,53,0.00,,,0.00,WUHU216HW,2013-03-03 23:46:00,
2013-03-03 18:51:00,37.8,22.1,29.64,North,0,0.0,0.0,53,0.00,,,0.00,WUHU216HW,2013-03-03 23:51:00,
2013-03-03 18:56:00,37.6,22.0,29.64,North,0,0.0,0.0,53,0.00,,,0.00,WUHU216HW,2013-03-03 23:56:00,
2013-03-03 19:01:00,37.4,21.8,29.65,North,0,0.0,0.0,53,0.00,,,0.00,WUHU216HW,2013-03-04 00:01:00,
2013-03-03 19:06:00,37.4,21.8,29.65,North,0,0.0,0.0,53,0.00,,,0.00,WUHU216HW,2013-03-04 00:06:00,
2013-03-03 19:11:00,37.4,21.8,29.65,North,0,0.0,0.0,53,0.00,,,0.00,WUHU216HW,2013-03-04 00:11:00,
2013-03-03 19:16:00,37.3,21.7,29.65,North,0,0.0,0.0,53,0.00,,,0.00,WUHU216HW,2013-03-04 00:16:00,
2013-03-03 19:21:00,37.3,21.7,29.65,North,0,0.0,0.0,53,0.00,,,0.00,WUHU216HW,2013-03-04 00:21:00,
2013-03-03 19:26:00,37.1,21.5,29.66,North,0,0.0,0.0,53,0.00,,,0.00,WUHU216HW,2013-03-04 00:26:00,
2013-03-03 19:32:00,37.1,21.5,29.66,North,0,0.0,0.0,53,0.00,,,0.00,WUHU216HW,2013-03-04 00:32:00,
2013-03-03 19:37:00,37.1,21.5,29.66,North,0,0.0,0.0,53,0.00,,,0.00,WUHU216HW,2013-03-04 00:37:00,
2013-03-03 19:42:00,37.1,21.5,29.66,North,0,0.0,0.0,53,0.00,,,0.00,WUHU216HW,2013-03-04 00:42:00,
2013-03-03 19:47:00,37.1,21.5,29.66,North,0,0.0,0.0,53,0.00,,,0.00,WUHU216HW,2013-03-04 00:47:00,
2013-03-03 19:52:00,36.9,21.8,29.66,North,0,0.0,0.0,54,0.00,,,0.00,WUHU216HW,2013-03-04 00:52:00,
2013-03-03 19:57:00,36.9,21.8,29.67,North,0,0.0,0.0,54,0.00,,,0.00,WUHU216HW,2013-03-04 00:57:00,
2013-03-03 20:02:00,36.7,21.6,29.67,North,0,0.0,0.0,54,0.00,,,0.00,WUHU216HW,2013-03-04 01:02:00,
2013-03-03 20:07:00,36.7,21.6,29.67,North,0,0.0,0.0,54,0.00,,,0.00,WUHU216HW,2013-03-04 01:07:00,
2013-03-03 20:12:00,36.7,21.6,29.67,North,0,0.0,0.0,54,0.00,,,0.00,WUHU216HW,2013-03-04 01:12:00,
2013-03-03 20:17:00,36.5,21.4,29.67,North,0,0.0,0.0,54,0.00,,,0.00,WUHU216HW,2013-03-04 01:17:00,
2013-03-03 20:22:00,36.4,21.2,29.67,North,0,0.0,0.0,54,0.00,,,0.00,WUHU216HW,2013-03-04 01:22:00,
2013-03-03 20:27:00,36.2,21.2,29.67,North,0,0.0,0.0,54,0.00,,,0.00,WUHU216HW,2013-03-04 01:27:00,
2013-03-03 20:32:00,36.0,21.4,29.68,North,0,0.0,0.0,55,0.00,,,0.00,WUHU216HW,2013-03-04 01:32:00,
2013-03-03 20:37:00,36.0,21.4,29.68,North,0,0.0,0.0,55,0.00,,,0.00,WUHU216HW,2013-03-04 01:37:00,
2013-03-03 20:42:00,36.0,21.4,29.68,North,0,0.0,0.0,55,0.00,,,0.00,WUHU216HW,2013-03-04 01:42:00,
2013-03-03 20:47:00,35.8,21.3,29.68,North,0,0.0,0.0,55,0.00,,,0.00,WUHU216HW,2013-03-04 01:47:00,
2013-03-03 20:53:00,35.6,21.1,29.68,North,0,0.0,0.0,55,0.00,,,0.00,WUHU216HW,2013-03-04 01:53:00,
2013-03-03 20:58:00,35.6,21.1,29.68,North,0,0.0,0.0,55,0.00,,,0.00,WUHU216HW,2013-03-04 01:58:00,
2013-03-03 21:03:00,35.3,20.7,29.68,North,0,0.0,0.0,55,0.00,,,0.00,WUHU216HW,2013-03-04 02:03:00,
2013-03-03 21:08:00,35.1,20.5,29.68,North,0,0.0,0.0,55,0.00,,,0.00,WUHU216HW,2013-03-04 02:08:00,
2013-03-03 21:13:00,34.9,20.8,29.68,North,0,0.0,0.0,56,0.00,,,0.00,WUHU216HW,2013-03-04 02:13:00,
2013-03-03 21:18:00,34.9,20.8,29.68,North,0,0.0,0.0,56,0.00,,,0.00,WUHU216HW,2013-03-04 02:18:00,
2013-03-03 21:23:00,34.7,20.6,29.69,North,0,0.0,0.0,56,0.00,,,0.00,WUHU216HW,2013-03-04 02:23:00,
2013-03-03 21:28:00,34.7,20.6,29.69,North,0,0.0,0.0,56,0.00,,,0.00,WUHU216HW,2013-03-04 02:28:00,
2013-03-03 21:33:00,34.7,20.6,29.69,North,0,0.0,0.0,56,0.00,,,0.00,WUHU216HW,2013-03-04 02:33:00,
2013-03-03 21:38:00,34.7,20.6,29.69,North,0,0.0,0.0,56,0.00,,,0.00,WUHU216HW,2013-03-04 02:38:00,
2013-03-03 21:43:00,34.7,20.6,29.69,North,0,0.0,0.0,56,0.00,,,0.00,WUHU216HW,2013-03-04 02:43:00,
2013-03-03 21:48:00,34.7,20.6,29.69,North,0,0.0,0.0,56,0.00,,,0.00,WUHU216HW,2013-03-04 02:48:00,
2013-03-03 21:53:00,34.7,20.6,29.69,North,0,0.0,0.0,56,0.00,,,0.00,WUHU216HW,2013-03-04 02:53:00,
2013-03-03 21:58:00,34.6,20.4,29.69,North,0,0.0,0.0,56,0.00,,,0.00,WUHU216HW,2013-03-04 02:58:00,
2013-03-03 22:04:00,34.6,20.4,29.69,North,0,0.0,0.0,56,0.00,,,0.00,WUHU216HW,2013-03-04 03:04:00,
2013-03-03 22:09:00,34.6,20.4,29.69,North,0,0.0,0.0,56,0.00,,,0.00,WUHU216HW,2013-03-04 03:09:00,
2013-03-03 22:14:00,34.6,20.4,29.69,North,0,0.0,0.0,56,0.00,,,0.00,WUHU216HW,2013-03-04 03:14:00,
2013-03-03 22:19:00,34.4,20.3,29.69,North,0,0.0,0.0,56,0.00,,,0.00,WUHU216HW,2013-03-04 03:19:00,
2013-03-03 22:24:00,34.2,20.1,29.69,North,0,0.0,0.0,56,0.00,,,0.00,WUHU216HW,2013-03-04 03:24:00,
2013-03-03 22:29:00,34.2,20.1,29.69,North,0,0.0,0.0,56,0.00,,,0.00,WUHU216HW,2013-03-04 03:29:00,
2013-03-03 22:34:00,34.2,20.1,29.69,North,0,0.0,0.0,56,0.00,,,0.00,WUHU216HW,2013-03-04 03:34:00,
2013-03-03 22:39:00,34.0,19.9,29.69,North,0,0.0,0.0,56,0.00,,,0.00,WUHU216HW,2013-03-04 03:39:00,
2013-03-03 22:44:00,33.8,20.2,29.69,North,0,0.0,0.0,57,0.00,,,0.00,WUHU216HW,2013-03-04 03:44:00,
2013-03-03 22:49:00,33.8,20.2,29.69,North,0,0.0,0.0,57,0.00,,,0.00,WUHU216HW,2013-03-04 03:49:00,
2013-03-03 22:54:00,33.8,20.2,29.69,North,0,0.0,0.0,57,0.00,,,0.00,WUHU216HW,2013-03-04 03:54:00,
2013-03-03 22:59:00,33.7,20.0,29.69,North,0,0.0,0.0,57,0.00,,,0.00,WUHU216HW,2013-03-04 03:59:00,
2013-03-03 23:04:00,33.7,20.0,29.69,North,0,0.0,0.0,57,0.00,,,0.00,WUHU216HW,2013-03-04 04:04:00,
2013-03-03 23:09:00,33.5,19.8,29.69,North,0,0.0,0.0,57,0.00,,,0.00,WUHU216HW,2013-03-04 04:09:00,
2013-03-03 23:15:00,33.5,20.3,29.69,North,0,0.0,0.0,58,0.00,,,0.00,WUHU216HW,2013-03-04 04:15:00,
2013-03-03 23:20:00,33.5,20.3,29.69,North,0,0.0,0.0,58,0.00,,,0.00,WUHU216HW,2013-03-04 04:20:00,
2013-03-03 23:25:00,33.8,20.5,29.69,North,0,0.0,0.0,58,0.00,,,0.00,WUHU216HW,2013-03-04 04:25:00,
2013-03-03 23:30:00,33.8,20.5,29.69,North,0,0.0,0.0,58,0.00,,,0.00,WUHU216HW,2013-03-04 04:30:00,
2013-03-03 23:35:00,33.7,20.4,29.69,North,0,0.0,0.0,58,0.00,,,0.00,WUHU216HW,2013-03-04 04:35:00,
2013-03-03 23:40:00,33.7,20.4,29.69,North,0,0.0,0.0,58,0.00,,,0.00,WUHU216HW,2013-03-04 04:40:00,
2013-03-03 23:45:00,33.7,20.4,29.69,North,0,0.0,0.0,58,0.00,,,0.00,WUHU216HW,2013-03-04 04:45:00,
2013-03-03 23:50:00,33.5,20.3,29.69,North,0,0.0,0.0,58,0.00,,,0.00,WUHU216HW,2013-03-04 04:50:00,
2013-03-03 23:55:00,33.3,20.1,29.69,North,0,0.0,0.0,58,0.00,,,0.00,WUHU216HW,2013-03-04 04:55:00,